Zprávy METAR z letišť v České republice

LKPR - Praha Ruzyně, Česká republika
Vzdálenost od této stanice: ZJZ 98km
Aktualizováno: 25.04.2018 00:00
 
Teplota vzduchu: 12°C
Vítr: JJZ 13 km/h
Rosný bod: 7°C
Vlhkost vzduchu: 72%
Tlak vzduchu: 1014 hPa
Stav počasí: Jasno
Oblačnost: jasná obloha
Viditelnost: více než 10 km
2018/04/24 22:00 LKPR 242200Z 20007KT CAVOK 12/07 Q1014 NOSIG
LKKB - Praha Kbely, Česká republika
Vzdálenost od této stanice: ZJZ 81km
Aktualizováno: 25.04.2018 00:00
 
Teplota vzduchu: 14°C
Vítr: JJZ 9 km/h
Rosný bod: 7°C
Vlhkost vzduchu: 63%
Tlak vzduchu: 1014 hPa
Stav počasí: Jasno
Oblačnost: jasná obloha
Viditelnost: více než 10 km
2018/04/24 22:00 LKKB 242200Z 20005KT CAVOK 14/07 Q1014
 
LKVO - Vodochody, Česká republika
Vzdálenost od této stanice: ZJZ 84km
Aktualizováno: 24.04.2018 14:00
Není aktuální
 
Teplota vzduchu: 20°C
Vítr: Z 19 km/h
Rosný bod: 8°C
Vlhkost vzduchu: 46%
Tlak vzduchu: 1016 hPa
Stav počasí: Jasno
Oblačnost: jasná obloha
Viditelnost: více než 10 km
2018/04/24 12:00 LKVO 241200Z 26010KT 210V300 CAVOK 20/08 Q1016
LKPD - Pardubice, Česká republika
Vzdálenost od této stanice: JJV 56km
Aktualizováno: 25.04.2018 00:00
 
Teplota vzduchu: 11°C
Vítr: JJV 2 km/h
Rosný bod: 9°C
Vlhkost vzduchu: 88%
Tlak vzduchu: 1014 hPa
Stav počasí: Jasno
Oblačnost: jasná obloha
Viditelnost: více než 10 km
2018/04/24 22:00 LKPD 242200Z 16001KT CAVOK 11/09 Q1014 RMK BLU
 
LKCV - Čáslav, Česká republika
Vzdálenost od této stanice: J 63km
Aktualizováno: 25.04.2018 00:00
 
Teplota vzduchu: 13°C
Vítr: JJZ 11 km/h
Rosný bod: 8°C
Vlhkost vzduchu: 72%
Tlak vzduchu: 1014 hPa
Stav počasí: Jasno
Oblačnost: jasná obloha
Viditelnost: více než 10 km
2018/04/24 22:00 LKCV 242200Z 21006KT CAVOK 13/08 Q1014 NOSIG
LKLB - Liberec, Česká republika
Vzdálenost od této stanice: SZ 45km
Aktualizováno: 02.01.2013 07:02
Není aktuální
 
Teplota vzduchu: -1°C
Vítr: JJV 6 km/h
Rosný bod: -2°C
Vlhkost vzduchu: 93%
Tlak vzduchu: 1016 hPa
Oblačnost: skoro zataženo
Viditelnost: 10 km
Detaily oblačnosti: skoro jasno 488 m
skoro zataženo 1311 m
2013/01/02 06:02 LKLB 020602Z 16003KT 9999 FEW016 BKN043 M01/M02 Q1016
 
LKKU - Kunovice, Česká republika
Vzdálenost od této stanice: JV 213km
Aktualizováno: 24.04.2018 16:00
Není aktuální
 
Teplota vzduchu: 23°C
Vítr: ZJZ 19 km/h
Rosný bod: 6°C
Vlhkost vzduchu: 33%
Tlak vzduchu: 1014 hPa
Stav počasí: Jasno
Oblačnost: jasná obloha
Viditelnost: více než 10 km
2018/04/24 14:00 LKKU 241400Z 25010KT CAVOK 23/06 Q1014
LKTB - Brno Tuřany, Česká republika
Vzdálenost od této stanice: JJV 174km
Aktualizováno: 25.04.2018 00:00
 
Teplota vzduchu: 15°C
Vítr: S 6 km/h
Rosný bod: 7°C
Vlhkost vzduchu: 59%
Tlak vzduchu: 1015 hPa
Stav počasí: Jasno
Oblačnost: jasná obloha
Viditelnost: více než 10 km
2018/04/24 22:00 LKTB 242200Z 01003KT CAVOK 15/07 Q1015 NOSIG
 
LKKV - Karlovy Vary, Česká republika
Vzdálenost od této stanice: Z 187km
Aktualizováno: 25.04.2018 00:00
 
Teplota vzduchu: 9°C
Vítr: proměnlivý 2 km/h
Rosný bod: 5°C
Vlhkost vzduchu: 76%
Tlak vzduchu: 1014 hPa
Stav počasí: Jasno
Oblačnost: jasná obloha
Viditelnost: více než 10 km
2018/04/24 22:00 LKKV 242200Z VRB01KT CAVOK 09/05 Q1014
LKMT - Ostrava Mošnov, Česká republika
Vzdálenost od této stanice: VJV 208km
Aktualizováno: 25.04.2018 00:00
 
Teplota vzduchu: 14°C
Vítr: J 9 km/h
Rosný bod: 7°C
Vlhkost vzduchu: 63%
Tlak vzduchu: 1014 hPa
Stav počasí: Jasno
Oblačnost: jasná obloha
Viditelnost: více než 10 km
2018/04/24 22:00 LKMT 242200Z 17005KT CAVOK 14/07 Q1014 NOSIG
 
LKNA - Náměšť n. Osl., Česká republika
Vzdálenost od této stanice: JJV 154km
Aktualizováno: 25.04.2018 00:00
 
Teplota vzduchu: 14°C
Vítr: JZ 4 km/h
Rosný bod: 7°C
Vlhkost vzduchu: 63%
Tlak vzduchu: 1015 hPa
Stav počasí: Jasno
Oblačnost: jasná obloha
Viditelnost: více než 10 km
2018/04/24 22:00 LKNA 242200Z 22002KT CAVOK 14/07 Q1015 RMK BLU
LKLN - Plzeň Líně, Česká republika
Vzdálenost od této stanice: ZJZ 184km
Aktualizováno: 25.04.2018 00:00
 
Teplota vzduchu: 11°C
Vítr: JZ 4 km/h
Rosný bod: 7°C
Vlhkost vzduchu: 77%
Tlak vzduchu: 1015 hPa
Stav počasí: Jasno
Oblačnost: jasná obloha
Viditelnost: více než 10 km
2018/04/24 22:00 LKLN 242200Z AUTO 22002KT CAVOK 11/07 Q1015
 
EDDC - Dresden/Klotzsche, Německo
Vzdálenost od této stanice: NNW 107km
Aktualizováno: 25.04.2018 00:20
 
Teplota vzduchu: 12°C
Vítr: JJV 9 km/h
Rosný bod: 8°C
Vlhkost vzduchu: 77%
Tlak vzduchu: 1013 hPa
Stav počasí: Jasno
Oblačnost: jasná obloha
Viditelnost: více než 10 km
2018/04/24 22:20 EDDC 242220Z 16005KT CAVOK 12/08 Q1013
EDAC - Altenburg-Nobitz, Německo
Vzdálenost od této stanice: WNW 159km
Aktualizováno: 24.04.2018 19:50
Není aktuální
 
Teplota vzduchu: 16°C
Vítr: bezvětří
Rosný bod: 8°C
Vlhkost vzduchu: 59%
Tlak vzduchu: 1014 hPa
Stav počasí: Jasno
Oblačnost: jasná obloha
Viditelnost: více než 10 km
2018/04/24 17:50 EDAC 241750Z 00000KT CAVOK 16/08 Q1014
 
EDQM - Hof, Německo
Vzdálenost od této stanice: W 187km
Aktualizováno: 24.04.2018 19:50
Není aktuální
 
Teplota vzduchu: 14°C
Vítr: JZ 11 km/h
Rosný bod: 6°C
Vlhkost vzduchu: 59%
Tlak vzduchu: 1015 hPa
Stav počasí: Jasno
Oblačnost: jasná obloha
Viditelnost: více než 10 km
2018/04/24 17:50 EDQM 241750Z 23006KT CAVOK 14/06 Q1015
ETSH - Holzdorf, Německo
Vzdálenost od této stanice: NNW 188km
Aktualizováno: 24.04.2018 23:20
 
Teplota vzduchu: 9°C
Vítr: proměnlivý 2 km/h
Rosný bod: 8°C
Vlhkost vzduchu: 94%
Tlak vzduchu: 1013 hPa
Oblačnost: skoro zataženo
Viditelnost: 10 km
Detaily oblačnosti: skoro jasno 3048 m
skoro zataženo 4267 m
2018/04/24 21:20 ETSH 242120Z VRB01KT 9999 FEW100 BKN140 09/08 Q1013 BLU BLU
 
EPWR - Wroclaw Strachowice, Polsko
Vzdálenost od této stanice: ENE 191km
Aktualizováno: 25.04.2018 00:00
 
Teplota vzduchu: 13°C
Vítr: ZJZ 9 km/h
Rosný bod: 9°C
Vlhkost vzduchu: 77%
Tlak vzduchu: 1014 hPa
Stav počasí: Jasno
Oblačnost: jasná obloha
Viditelnost: více než 10 km
2018/04/24 22:00 EPWR 242200Z 25005KT CAVOK 13/09 Q1014
ETIC - Grafenwöhr, Německo
Vzdálenost od této stanice: WSW 194km
Aktualizováno: 24.04.2018 22:56
Není aktuální
 
Teplota vzduchu: 12°C
Vítr: bezvětří
Rosný bod: 7°C
Vlhkost vzduchu: 72%
Tlak vzduchu: 1014.9 hPa
Oblačnost: jasno
Viditelnost: 10 km
2018/04/24 20:56 ETIC 242056Z AUTO 00000KT 9999 CLR 12/07 A2997 RMK AO2 SLP147 T01200071 58002 $
 
EDDP - Liepzig/Schkeuditz, Německo
Vzdálenost od této stanice: NW 202km
Aktualizováno: 25.04.2018 00:20
 
Teplota vzduchu: 10°C
Chlad větru: 8°C
Vítr: JV 13 km/h
Rosný bod: 9°C
Vlhkost vzduchu: 94%
Tlak vzduchu: 1012 hPa
Stav počasí: Jasno
Oblačnost: jasná obloha
Viditelnost: více než 10 km
2018/04/24 22:20 EDDP 242220Z 13007KT CAVOK 10/09 Q1012 NOSIG
EPZG - Zielena Gora, Polsko
Vzdálenost od této stanice: NNE 224km
Aktualizováno: 25.04.2018 00:00
 
Teplota vzduchu: 9°C
Vítr: JJZ 2 km/h
Rosný bod: 9°C
Vlhkost vzduchu: 100%
Tlak vzduchu: 1013 hPa
Stav počasí: chuchvalce mlha
Oblačnost: oblačno
Viditelnost: 6 km
2018/04/24 22:00 EPZG 242200Z 21001KT 6000 1500SW BCFG NSC 09/09 Q1013
 
ETIH - Hohenfels U.S. Army Garrison Bavaria, Německo
Vzdálenost od této stanice: WSW 226km
Aktualizováno: 24.04.2018 23:56
 
Teplota vzduchu: 10°C
Vítr: bezvětří
Rosný bod: 9°C
Vlhkost vzduchu: 94%
Tlak vzduchu: 1015.2 hPa
Oblačnost: jasno
Viditelnost: 10 km
2018/04/24 21:56 ETIH 242156Z AUTO 00000KT 9999 CLR 10/09 A2998 RMK AO2 SLP150 T00980086 $
LOWL - Linz (CIV/MIL), Rakousko
Vzdálenost od této stanice: S 232km
Aktualizováno: 24.04.2018 23:50
 
Teplota vzduchu: 13°C
Vítr: proměnlivý 2 km/h
Rosný bod: 10°C
Vlhkost vzduchu: 82%
Tlak vzduchu: 1016 hPa
Stav počasí: Jasno
Oblačnost: jasná obloha
Viditelnost: více než 10 km
2018/04/24 21:50 LOWL 242150Z VRB01KT CAVOK 13/10 Q1016 NOSIG
 
EDDB - Berlin/Schönefeld, Německo
Vzdálenost od této stanice: NNW 242km
Aktualizováno: 25.04.2018 00:20
 
Teplota vzduchu: 12°C
Vítr: JJZ 9 km/h
Rosný bod: 9°C
Vlhkost vzduchu: 82%
Tlak vzduchu: 1012 hPa
Stav počasí: Jasno
Oblačnost: jasná obloha
Viditelnost: více než 10 km
2018/04/24 22:20 EDDB 242220Z 20005KT CAVOK 12/09 Q1012 NOSIG

Metar display script od Saratoga-Weather.org
upravil a přeložil Miloš Jiřík